sensor_id;sensor_type;location;lat;lon;timestamp;temperature;humidity
43227;DHT22;28839;52.404;9.808;2023-06-10T00:05:27;16.80;99.90
43227;DHT22;28839;52.404;9.808;2023-06-10T00:12:22;16.80;99.90
43227;DHT22;28839;52.404;9.808;2023-06-10T00:19:17;16.60;99.90
43227;DHT22;28839;52.404;9.808;2023-06-10T00:26:11;16.40;99.90
43227;DHT22;28839;52.404;9.808;2023-06-10T00:33:05;16.30;99.90
43227;DHT22;28839;52.404;9.808;2023-06-10T00:40:00;16.20;99.90
43227;DHT22;28839;52.404;9.808;2023-06-10T00:46:54;16.10;99.90
43227;DHT22;28839;52.404;9.808;2023-06-10T00:53:48;16.00;99.90
43227;DHT22;28839;52.404;9.808;2023-06-10T01:00:44;15.70;99.90
43227;DHT22;28839;52.404;9.808;2023-06-10T01:07:43;15.60;99.90
43227;DHT22;28839;52.404;9.808;2023-06-10T01:14:40;15.50;99.90
43227;DHT22;28839;52.404;9.808;2023-06-10T01:21:39;15.40;99.90
43227;DHT22;28839;52.404;9.808;2023-06-10T01:28:36;15.20;99.90
43227;DHT22;28839;52.404;9.808;2023-06-10T01:35:32;14.90;99.90
43227;DHT22;28839;52.404;9.808;2023-06-10T01:42:28;14.90;99.90
43227;DHT22;28839;52.404;9.808;2023-06-10T01:49:22;14.70;99.90
43227;DHT22;28839;52.404;9.808;2023-06-10T01:56:17;14.70;99.90
43227;DHT22;28839;52.404;9.808;2023-06-10T02:03:13;14.50;99.90
43227;DHT22;28839;52.404;9.808;2023-06-10T02:10:08;14.40;99.90
43227;DHT22;28839;52.404;9.808;2023-06-10T02:17:02;14.20;99.90
43227;DHT22;28839;52.404;9.808;2023-06-10T02:23:58;14.00;99.90
43227;DHT22;28839;52.404;9.808;2023-06-10T02:30:52;13.80;99.90
43227;DHT22;28839;52.404;9.808;2023-06-10T02:37:46;13.80;99.90
43227;DHT22;28839;52.404;9.808;2023-06-10T02:44:41;13.60;99.90
43227;DHT22;28839;52.404;9.808;2023-06-10T02:51:35;13.60;99.90
43227;DHT22;28839;52.404;9.808;2023-06-10T02:58:29;13.50;99.90
43227;DHT22;28839;52.404;9.808;2023-06-10T03:05:24;13.40;99.90
43227;DHT22;28839;52.404;9.808;2023-06-10T03:12:18;13.30;99.90
43227;DHT22;28839;52.404;9.808;2023-06-10T03:19:12;13.30;99.90
43227;DHT22;28839;52.404;9.808;2023-06-10T03:26:07;13.10;99.90
43227;DHT22;28839;52.404;9.808;2023-06-10T03:33:02;13.20;99.90
43227;DHT22;28839;52.404;9.808;2023-06-10T03:39:56;13.10;99.90
43227;DHT22;28839;52.404;9.808;2023-06-10T03:46:51;13.00;99.90
43227;DHT22;28839;52.404;9.808;2023-06-10T03:53:45;13.00;99.90
43227;DHT22;28839;52.404;9.808;2023-06-10T04:00:39;13.00;99.90
43227;DHT22;28839;52.404;9.808;2023-06-10T04:07:36;13.00;99.90
43227;DHT22;28839;52.404;9.808;2023-06-10T04:14:31;13.10;99.90
43227;DHT22;28839;52.404;9.808;2023-06-10T04:21:25;13.10;99.90
43227;DHT22;28839;52.404;9.808;2023-06-10T04:28:20;13.20;99.90
43227;DHT22;28839;52.404;9.808;2023-06-10T04:35:15;13.30;99.90
43227;DHT22;28839;52.404;9.808;2023-06-10T04:42:09;13.40;99.90
43227;DHT22;28839;52.404;9.808;2023-06-10T04:49:04;13.40;99.90
43227;DHT22;28839;52.404;9.808;2023-06-10T04:55:58;13.50;99.90
43227;DHT22;28839;52.404;9.808;2023-06-10T05:02:52;13.40;99.90
43227;DHT22;28839;52.404;9.808;2023-06-10T05:09:47;13.50;99.90
43227;DHT22;28839;52.404;9.808;2023-06-10T05:16:41;13.40;99.90
43227;DHT22;28839;52.404;9.808;2023-06-10T05:23:35;13.60;99.90
43227;DHT22;28839;52.404;9.808;2023-06-10T05:30:30;13.70;99.90
43227;DHT22;28839;52.404;9.808;2023-06-10T05:37:24;13.80;99.90
43227;DHT22;28839;52.404;9.808;2023-06-10T05:44:18;14.10;99.90
43227;DHT22;28839;52.404;9.808;2023-06-10T05:51:13;14.30;99.90
43227;DHT22;28839;52.404;9.808;2023-06-10T05:58:07;14.80;99.90
43227;DHT22;28839;52.404;9.808;2023-06-10T06:05:01;15.40;99.90
43227;DHT22;28839;52.404;9.808;2023-06-10T06:11:56;15.50;99.90
43227;DHT22;28839;52.404;9.808;2023-06-10T06:18:50;15.70;99.90
43227;DHT22;28839;52.404;9.808;2023-06-10T06:25:44;15.80;99.90
43227;DHT22;28839;52.404;9.808;2023-06-10T06:32:39;16.30;99.90
43227;DHT22;28839;52.404;9.808;2023-06-10T06:39:33;17.30;99.90
43227;DHT22;28839;52.404;9.808;2023-06-10T06:46:27;17.60;99.90
43227;DHT22;28839;52.404;9.808;2023-06-10T06:53:22;18.80;99.90
43227;DHT22;28839;52.404;9.808;2023-06-10T07:00:16;19.00;99.90
43227;DHT22;28839;52.404;9.808;2023-06-10T07:07:10;20.20;99.90
43227;DHT22;28839;52.404;9.808;2023-06-10T07:14:06;20.20;99.90
43227;DHT22;28839;52.404;9.808;2023-06-10T07:21:00;20.40;99.90
43227;DHT22;28839;52.404;9.808;2023-06-10T07:27:54;20.40;99.90
43227;DHT22;28839;52.404;9.808;2023-06-10T07:34:49;20.50;99.90
43227;DHT22;28839;52.404;9.808;2023-06-10T07:41:43;21.70;99.90
43227;DHT22;28839;52.404;9.808;2023-06-10T07:48:37;22.10;99.90
43227;DHT22;28839;52.404;9.808;2023-06-10T07:55:32;22.80;99.90
43227;DHT22;28839;52.404;9.808;2023-06-10T08:02:26;23.40;99.90
43227;DHT22;28839;52.404;9.808;2023-06-10T08:09:19;22.40;99.90
43227;DHT22;28839;52.404;9.808;2023-06-10T08:16:16;22.10;99.90
43227;DHT22;28839;52.404;9.808;2023-06-10T08:23:09;23.40;99.90
43227;DHT22;28839;52.404;9.808;2023-06-10T08:30:04;24.40;99.90
43227;DHT22;28839;52.404;9.808;2023-06-10T08:37:00;23.50;99.90
43227;DHT22;28839;52.404;9.808;2023-06-10T08:43:59;24.50;99.90
43227;DHT22;28839;52.404;9.808;2023-06-10T08:50:56;25.90;99.90
43227;DHT22;28839;52.404;9.808;2023-06-10T08:57:52;25.20;99.90
43227;DHT22;28839;52.404;9.808;2023-06-10T09:04:46;25.70;99.90
43227;DHT22;28839;52.404;9.808;2023-06-10T09:11:42;25.80;99.90
43227;DHT22;28839;52.404;9.808;2023-06-10T09:18:38;27.20;99.90
43227;DHT22;28839;52.404;9.808;2023-06-10T09:25:35;27.00;98.40
43227;DHT22;28839;52.404;9.808;2023-06-10T09:32:30;26.40;99.90
43227;DHT22;28839;52.404;9.808;2023-06-10T09:39:25;26.70;99.40
43227;DHT22;28839;52.404;9.808;2023-06-10T09:46:19;27.10;97.80
43227;DHT22;28839;52.404;9.808;2023-06-10T09:53:13;26.60;98.50
43227;DHT22;28839;52.404;9.808;2023-06-10T10:00:10;26.80;98.00
43227;DHT22;28839;52.404;9.808;2023-06-10T10:07:04;26.40;99.90
43227;DHT22;28839;52.404;9.808;2023-06-10T10:14:00;26.60;99.90
43227;DHT22;28839;52.404;9.808;2023-06-10T10:21:01;26.50;99.90
43227;DHT22;28839;52.404;9.808;2023-06-10T10:28:04;27.00;99.90
43227;DHT22;28839;52.404;9.808;2023-06-10T10:35:07;27.90;99.90
43227;DHT22;28839;52.404;9.808;2023-06-10T10:42:03;27.90;98.00
43227;DHT22;28839;52.404;9.808;2023-06-10T10:48:58;27.90;99.00
43227;DHT22;28839;52.404;9.808;2023-06-10T10:55:59;27.10;99.90
43227;DHT22;28839;52.404;9.808;2023-06-10T11:02:58;27.60;99.90
43227;DHT22;28839;52.404;9.808;2023-06-10T11:09:59;27.60;99.90
43227;DHT22;28839;52.404;9.808;2023-06-10T11:16:53;27.40;99.90
43227;DHT22;28839;52.404;9.808;2023-06-10T11:23:51;26.50;99.90
43227;DHT22;28839;52.404;9.808;2023-06-10T11:30:45;27.40;99.90
43227;DHT22;28839;52.404;9.808;2023-06-10T11:37:39;27.00;99.90
43227;DHT22;28839;52.404;9.808;2023-06-10T11:44:34;27.50;99.90
43227;DHT22;28839;52.404;9.808;2023-06-10T11:51:33;27.60;99.90
43227;DHT22;28839;52.404;9.808;2023-06-10T11:58:27;27.40;99.90
43227;DHT22;28839;52.404;9.808;2023-06-10T12:05:22;26.80;99.90
43227;DHT22;28839;52.404;9.808;2023-06-10T12:12:16;27.10;99.90
43227;DHT22;28839;52.404;9.808;2023-06-10T12:19:12;27.30;99.90
43227;DHT22;28839;52.404;9.808;2023-06-10T12:26:07;27.60;99.90
43227;DHT22;28839;52.404;9.808;2023-06-10T12:33:01;27.40;99.90
43227;DHT22;28839;52.404;9.808;2023-06-10T12:39:55;27.30;99.90
43227;DHT22;28839;52.404;9.808;2023-06-10T12:46:55;27.40;99.90
43227;DHT22;28839;52.404;9.808;2023-06-10T12:53:49;27.70;99.90
43227;DHT22;28839;52.404;9.808;2023-06-10T13:00:43;27.80;99.90
43227;DHT22;28839;52.404;9.808;2023-06-10T13:07:38;27.90;99.90
43227;DHT22;28839;52.404;9.808;2023-06-10T13:14:34;27.80;99.80
43227;DHT22;28839;52.404;9.808;2023-06-10T13:21:29;28.40;98.00
43227;DHT22;28839;52.404;9.808;2023-06-10T13:28:24;27.80;97.20
43227;DHT22;28839;52.404;9.808;2023-06-10T13:35:19;28.10;96.20
43227;DHT22;28839;52.404;9.808;2023-06-10T13:42:12;27.80;96.40
43227;DHT22;28839;52.404;9.808;2023-06-10T13:49:08;28.10;96.30
43227;DHT22;28839;52.404;9.808;2023-06-10T13:56:02;28.30;95.20
43227;DHT22;28839;52.404;9.808;2023-06-10T14:02:55;28.20;95.70
43227;DHT22;28839;52.404;9.808;2023-06-10T14:09:50;28.10;95.90
43227;DHT22;28839;52.404;9.808;2023-06-10T14:16:44;28.50;97.10
43227;DHT22;28839;52.404;9.808;2023-06-10T14:23:38;28.30;94.20
43227;DHT22;28839;52.404;9.808;2023-06-10T14:30:33;28.30;95.40
43227;DHT22;28839;52.404;9.808;2023-06-10T14:37:27;28.20;95.70
43227;DHT22;28839;52.404;9.808;2023-06-10T14:44:21;28.50;94.90
43227;DHT22;28839;52.404;9.808;2023-06-10T14:51:16;28.30;95.50
43227;DHT22;28839;52.404;9.808;2023-06-10T14:58:10;28.40;94.00
43227;DHT22;28839;52.404;9.808;2023-06-10T15:05:04;28.40;95.10
43227;DHT22;28839;52.404;9.808;2023-06-10T15:12:00;28.60;94.80
43227;DHT22;28839;52.404;9.808;2023-06-10T15:18:53;28.40;93.50
43227;DHT22;28839;52.404;9.808;2023-06-10T15:25:47;28.40;94.90
43227;DHT22;28839;52.404;9.808;2023-06-10T15:32:42;28.30;95.30
43227;DHT22;28839;52.404;9.808;2023-06-10T15:39:36;28.70;94.30
43227;DHT22;28839;52.404;9.808;2023-06-10T15:46:30;28.30;93.50
43227;DHT22;28839;52.404;9.808;2023-06-10T15:53:28;28.30;93.60
43227;DHT22;28839;52.404;9.808;2023-06-10T16:00:21;28.50;91.90
43227;DHT22;28839;52.404;9.808;2023-06-10T16:07:15;28.60;92.50
43227;DHT22;28839;52.404;9.808;2023-06-10T16:14:10;28.60;92.00
43227;DHT22;28839;52.404;9.808;2023-06-10T16:21:05;28.50;92.70
43227;DHT22;28839;52.404;9.808;2023-06-10T16:28:00;28.70;94.10
43227;DHT22;28839;52.404;9.808;2023-06-10T16:34:55;28.20;95.40
43227;DHT22;28839;52.404;9.808;2023-06-10T16:41:52;27.90;95.20
43227;DHT22;28839;52.404;9.808;2023-06-10T16:48:47;28.20;94.90
43227;DHT22;28839;52.404;9.808;2023-06-10T16:55:42;28.10;94.70
43227;DHT22;28839;52.404;9.808;2023-06-10T17:02:36;27.90;94.40
43227;DHT22;28839;52.404;9.808;2023-06-10T17:09:30;27.30;94.20
43227;DHT22;28839;52.404;9.808;2023-06-10T17:16:25;26.20;94.70
43227;DHT22;28839;52.404;9.808;2023-06-10T17:23:21;25.90;95.90
43227;DHT22;28839;52.404;9.808;2023-06-10T17:30:16;24.80;99.70
43227;DHT22;28839;52.404;9.808;2023-06-10T17:37:11;24.30;99.90
43227;DHT22;28839;52.404;9.808;2023-06-10T17:44:05;24.40;99.90
43227;DHT22;28839;52.404;9.808;2023-06-10T17:50:59;24.00;99.90
43227;DHT22;28839;52.404;9.808;2023-06-10T17:57:55;23.60;99.90
43227;DHT22;28839;52.404;9.808;2023-06-10T18:04:49;23.60;99.90
43227;DHT22;28839;52.404;9.808;2023-06-10T18:11:42;23.50;99.90
43227;DHT22;28839;52.404;9.808;2023-06-10T18:18:38;23.10;99.90
43227;DHT22;28839;52.404;9.808;2023-06-10T18:25:32;23.00;99.90
43227;DHT22;28839;52.404;9.808;2023-06-10T18:32:26;23.00;99.90
43227;DHT22;28839;52.404;9.808;2023-06-10T18:39:21;22.80;99.90
43227;DHT22;28839;52.404;9.808;2023-06-10T18:46:15;22.70;99.90
43227;DHT22;28839;52.404;9.808;2023-06-10T18:53:08;22.60;99.90
43227;DHT22;28839;52.404;9.808;2023-06-10T19:00:05;22.50;99.90
43227;DHT22;28839;52.404;9.808;2023-06-10T19:06:59;22.40;99.90
43227;DHT22;28839;52.404;9.808;2023-06-10T19:13:53;22.10;99.90
43227;DHT22;28839;52.404;9.808;2023-06-10T19:20:48;21.80;99.90
43227;DHT22;28839;52.404;9.808;2023-06-10T19:27:42;21.80;99.90
43227;DHT22;28839;52.404;9.808;2023-06-10T19:34:36;21.70;99.90
43227;DHT22;28839;52.404;9.808;2023-06-10T19:41:31;21.60;99.90
43227;DHT22;28839;52.404;9.808;2023-06-10T19:48:25;21.70;99.90
43227;DHT22;28839;52.404;9.808;2023-06-10T19:55:18;21.50;99.90
43227;DHT22;28839;52.404;9.808;2023-06-10T20:02:14;21.50;99.90
43227;DHT22;28839;52.404;9.808;2023-06-10T20:09:08;21.30;99.90
43227;DHT22;28839;52.404;9.808;2023-06-10T20:16:06;21.30;99.90
43227;DHT22;28839;52.404;9.808;2023-06-10T20:23:01;21.40;99.90
43227;DHT22;28839;52.404;9.808;2023-06-10T20:29:55;21.20;99.90
43227;DHT22;28839;52.404;9.808;2023-06-10T20:36:53;21.00;99.90
43227;DHT22;28839;52.404;9.808;2023-06-10T20:43:52;21.00;99.90
43227;DHT22;28839;52.404;9.808;2023-06-10T20:50:45;20.70;99.90
43227;DHT22;28839;52.404;9.808;2023-06-10T20:57:40;20.60;99.90
43227;DHT22;28839;52.404;9.808;2023-06-10T21:04:35;20.40;99.90
43227;DHT22;28839;52.404;9.808;2023-06-10T21:11:29;20.40;99.90
43227;DHT22;28839;52.404;9.808;2023-06-10T21:18:22;20.00;99.90
43227;DHT22;28839;52.404;9.808;2023-06-10T21:25:18;19.90;99.90
43227;DHT22;28839;52.404;9.808;2023-06-10T21:32:11;19.80;99.90
43227;DHT22;28839;52.404;9.808;2023-06-10T21:39:05;19.80;99.90
43227;DHT22;28839;52.404;9.808;2023-06-10T21:46:01;19.80;99.90
43227;DHT22;28839;52.404;9.808;2023-06-10T21:52:55;19.70;99.90
43227;DHT22;28839;52.404;9.808;2023-06-10T21:59:49;19.60;99.90
43227;DHT22;28839;52.404;9.808;2023-06-10T22:06:46;19.60;99.90
43227;DHT22;28839;52.404;9.808;2023-06-10T22:13:40;19.50;99.90
43227;DHT22;28839;52.404;9.808;2023-06-10T22:20:34;19.30;99.90
43227;DHT22;28839;52.404;9.808;2023-06-10T22:27:30;19.10;99.90
43227;DHT22;28839;52.404;9.808;2023-06-10T22:34:23;19.00;99.90
43227;DHT22;28839;52.404;9.808;2023-06-10T22:41:17;19.00;99.90
43227;DHT22;28839;52.404;9.808;2023-06-10T22:48:13;19.00;99.90
43227;DHT22;28839;52.404;9.808;2023-06-10T22:55:07;18.80;99.90
43227;DHT22;28839;52.404;9.808;2023-06-10T23:02:01;18.80;99.90
43227;DHT22;28839;52.404;9.808;2023-06-10T23:08:57;18.80;99.90
43227;DHT22;28839;52.404;9.808;2023-06-10T23:15:50;18.70;99.90
43227;DHT22;28839;52.404;9.808;2023-06-10T23:22:44;18.60;99.90
43227;DHT22;28839;52.404;9.808;2023-06-10T23:29:44;18.50;99.90
43227;DHT22;28839;52.404;9.808;2023-06-10T23:36:37;18.30;99.90
43227;DHT22;28839;52.404;9.808;2023-06-10T23:43:32;18.10;99.90
43227;DHT22;28839;52.404;9.808;2023-06-10T23:50:28;18.20;99.90
43227;DHT22;28839;52.404;9.808;2023-06-10T23:57:23;18.00;99.90
